createdAt,value
2022-07-25T00:01:55.798Z,98.30
2022-07-25T00:04:23.816Z,98.90
2022-07-25T00:06:51.071Z,99.50
2022-07-25T00:09:18.899Z,99.90
2022-07-25T00:11:45.774Z,99.90
2022-07-25T00:14:12.659Z,99.90
2022-07-25T00:16:40.097Z,99.90
2022-07-25T00:19:06.976Z,99.90
2022-07-25T00:21:33.993Z,99.90
2022-07-25T00:24:00.757Z,99.90
2022-07-25T00:26:27.836Z,99.90
2022-07-25T00:28:54.786Z,99.90
2022-07-25T00:31:21.643Z,99.90
2022-07-25T00:33:48.586Z,99.90
2022-07-25T00:36:15.373Z,99.90
2022-07-25T00:38:42.163Z,99.90
2022-07-25T00:41:08.984Z,99.90
2022-07-25T00:43:35.789Z,99.90
2022-07-25T00:46:02.931Z,99.90
2022-07-25T00:48:30.122Z,99.90
2022-07-25T00:50:57.167Z,99.90
2022-07-25T00:53:25.265Z,99.90
2022-07-25T00:55:52.643Z,99.90
2022-07-25T00:58:19.737Z,99.90
2022-07-25T01:00:47.435Z,99.90
2022-07-25T01:03:14.818Z,99.90
2022-07-25T01:05:42.391Z,99.90
2022-07-25T01:08:10.267Z,99.90
2022-07-25T01:10:37.547Z,99.90
2022-07-25T01:13:04.838Z,99.90
2022-07-25T01:15:32.236Z,99.90
2022-07-25T01:17:59.700Z,99.90
2022-07-25T01:20:28.351Z,99.90
2022-07-25T01:22:55.716Z,99.90
2022-07-25T01:25:23.407Z,99.90
2022-07-25T01:27:55.558Z,99.90
2022-07-25T01:30:24.071Z,99.90
2022-07-25T01:32:51.244Z,99.90
2022-07-25T01:35:18.149Z,99.90
2022-07-25T01:37:45.458Z,99.90
2022-07-25T01:40:14.378Z,99.90
2022-07-25T01:42:42.299Z,99.90
2022-07-25T01:45:10.476Z,99.90
2022-07-25T01:47:37.357Z,99.90
2022-07-25T01:50:05.610Z,99.90
2022-07-25T01:52:32.497Z,99.90
2022-07-25T01:54:59.417Z,99.90
2022-07-25T01:57:30.797Z,99.90
2022-07-25T01:59:58.310Z,99.90
2022-07-25T02:02:25.211Z,99.90
2022-07-25T02:04:52.277Z,99.90
2022-07-25T02:07:19.212Z,99.90
2022-07-25T02:09:46.041Z,99.90
2022-07-25T02:12:12.948Z,99.90
2022-07-25T02:14:40.122Z,99.90
2022-07-25T02:17:07.144Z,99.90
2022-07-25T02:19:34.372Z,99.90
2022-07-25T02:22:01.433Z,99.90
2022-07-25T02:24:28.345Z,99.90
2022-07-25T02:26:55.210Z,99.90
2022-07-25T02:29:22.299Z,99.90
2022-07-25T02:31:49.417Z,99.90
2022-07-25T02:34:16.446Z,99.90
2022-07-25T02:36:43.423Z,99.90
2022-07-25T02:39:10.266Z,99.90
2022-07-25T02:41:37.210Z,99.90
2022-07-25T02:44:05.616Z,99.90
2022-07-25T02:46:33.312Z,99.90
2022-07-25T02:49:00.306Z,99.90
2022-07-25T02:51:27.124Z,99.90
2022-07-25T02:53:57.567Z,99.90
2022-07-25T02:56:25.140Z,99.90
2022-07-25T02:58:51.978Z,99.90
2022-07-25T03:01:18.924Z,99.90
2022-07-25T03:03:46.072Z,99.90
2022-07-25T03:06:12.991Z,99.90
2022-07-25T03:08:39.762Z,99.90
2022-07-25T03:11:06.587Z,99.90
2022-07-25T03:13:33.606Z,99.90
2022-07-25T03:16:00.837Z,99.90
2022-07-25T03:18:27.700Z,99.90
2022-07-25T03:20:54.452Z,99.90
2022-07-25T03:23:21.326Z,99.90
2022-07-25T03:25:48.331Z,99.90
2022-07-25T03:28:15.172Z,99.90
2022-07-25T03:30:41.939Z,99.90
2022-07-25T03:33:10.179Z,99.90
2022-07-25T03:35:39.812Z,99.90
2022-07-25T03:38:06.862Z,99.90
2022-07-25T03:40:33.660Z,99.90
2022-07-25T03:43:00.440Z,99.90
2022-07-25T03:45:27.294Z,99.90
2022-07-25T03:47:54.196Z,99.90
2022-07-25T03:50:21.023Z,99.90
2022-07-25T03:52:47.836Z,99.90
2022-07-25T03:55:14.757Z,99.90
2022-07-25T03:57:41.594Z,99.90
2022-07-25T04:00:10.507Z,99.90
2022-07-25T04:02:38.103Z,99.90
2022-07-25T04:05:06.854Z,99.90
2022-07-25T04:07:34.108Z,99.90
2022-07-25T04:10:00.903Z,99.90
2022-07-25T04:12:27.776Z,99.90
2022-07-25T04:14:54.591Z,99.90
2022-07-25T04:17:21.477Z,99.90
2022-07-25T04:19:48.372Z,99.90
2022-07-25T04:22:15.887Z,99.90
2022-07-25T04:24:43.015Z,99.90
2022-07-25T04:27:10.053Z,99.90
2022-07-25T04:29:36.857Z,99.90
2022-07-25T04:32:03.969Z,99.90
2022-07-25T04:34:31.101Z,99.90
2022-07-25T04:36:58.108Z,99.90
2022-07-25T04:39:24.956Z,99.90
2022-07-25T04:41:51.764Z,99.90
2022-07-25T04:44:18.685Z,99.90
2022-07-25T04:46:45.577Z,99.90
2022-07-25T04:49:12.446Z,99.90
2022-07-25T04:51:39.308Z,99.90
2022-07-25T04:54:07.248Z,99.90
2022-07-25T04:56:34.346Z,99.90
2022-07-25T04:59:06.568Z,99.90
2022-07-25T05:01:34.880Z,99.90
2022-07-25T05:04:02.022Z,99.90
2022-07-25T05:06:29.134Z,99.90
2022-07-25T05:08:55.967Z,99.90
2022-07-25T05:11:22.889Z,99.90
2022-07-25T05:13:49.737Z,99.90
2022-07-25T05:16:16.695Z,99.90
2022-07-25T05:18:43.864Z,99.90
2022-07-25T05:21:14.157Z,99.90
2022-07-25T05:23:41.208Z,99.90
2022-07-25T05:26:08.266Z,99.90
2022-07-25T05:28:35.203Z,99.90
2022-07-25T05:31:02.085Z,99.90
2022-07-25T05:33:28.984Z,99.90
2022-07-25T05:35:55.960Z,99.90
2022-07-25T05:38:22.934Z,99.90
2022-07-25T05:40:52.086Z,99.90
2022-07-25T05:43:19.227Z,99.90
2022-07-25T05:45:47.345Z,99.90
2022-07-25T05:48:14.976Z,99.90
2022-07-25T05:50:41.944Z,99.90
2022-07-25T05:53:08.909Z,99.90
2022-07-25T05:55:35.653Z,99.90
2022-07-25T05:58:07.604Z,99.90
2022-07-25T06:00:34.394Z,99.90
2022-07-25T06:03:01.362Z,99.90
2022-07-25T06:05:28.281Z,99.90
2022-07-25T06:07:55.275Z,99.90
2022-07-25T06:10:22.906Z,99.90
2022-07-25T06:12:49.709Z,99.90
2022-07-25T06:15:22.635Z,99.90
2022-07-25T06:17:54.736Z,99.90
2022-07-25T06:20:22.132Z,99.90
2022-07-25T06:22:49.052Z,99.90
2022-07-25T06:25:15.925Z,99.90
2022-07-25T06:27:43.781Z,99.90
2022-07-25T06:30:19.725Z,99.90
2022-07-25T06:32:50.678Z,99.90
2022-07-25T06:35:18.250Z,99.90
2022-07-25T06:37:45.368Z,99.90
2022-07-25T06:40:12.976Z,99.90
2022-07-25T06:42:41.491Z,99.90
2022-07-25T06:45:10.729Z,99.90
2022-07-25T06:47:38.589Z,99.90
2022-07-25T06:50:07.438Z,99.90
2022-07-25T06:52:34.806Z,99.90
2022-07-25T06:55:02.671Z,99.90
2022-07-25T06:57:29.506Z,99.90
2022-07-25T06:59:56.411Z,99.90
2022-07-25T07:02:23.378Z,99.90
2022-07-25T07:04:50.461Z,99.90
2022-07-25T07:07:17.537Z,99.90
2022-07-25T07:09:44.516Z,99.90
2022-07-25T07:12:11.519Z,99.90
2022-07-25T07:14:38.420Z,99.90
2022-07-25T07:17:05.716Z,99.90
2022-07-25T07:19:32.556Z,99.90
2022-07-25T07:21:59.728Z,99.90
2022-07-25T07:24:26.761Z,99.90
2022-07-25T07:26:54.790Z,98.50
2022-07-25T07:29:21.787Z,97.60
2022-07-25T07:31:49.070Z,97.70
2022-07-25T07:34:16.659Z,96.80
2022-07-25T07:36:43.854Z,96.30
2022-07-25T07:39:10.898Z,95.40
2022-07-25T07:41:37.739Z,94.10
2022-07-25T07:44:05.671Z,94.20
2022-07-25T07:46:32.624Z,94.00
2022-07-25T07:48:59.501Z,91.80
2022-07-25T07:51:26.402Z,91.00
2022-07-25T07:54:11.968Z,90.70
2022-07-25T07:56:39.426Z,90.60
2022-07-25T07:59:06.760Z,87.80
2022-07-25T08:01:35.009Z,85.00
2022-07-25T08:04:02.981Z,82.60
2022-07-25T08:06:30.783Z,82.80
2022-07-25T08:09:00.009Z,82.10
2022-07-25T08:11:26.927Z,79.50
2022-07-25T08:13:53.763Z,76.80
2022-07-25T08:16:20.647Z,76.80
2022-07-25T08:18:48.539Z,75.20
2022-07-25T08:21:15.539Z,74.70
2022-07-25T08:23:44.989Z,72.70
2022-07-25T08:26:14.127Z,68.60
2022-07-25T08:28:41.310Z,66.80
2022-07-25T08:31:08.170Z,66.10
2022-07-25T08:33:35.261Z,65.50
2022-07-25T08:36:02.130Z,66.30
2022-07-25T08:38:29.336Z,62.30
2022-07-25T08:40:57.350Z,60.30
2022-07-25T08:43:25.145Z,60.00
2022-07-25T08:45:53.593Z,59.10
2022-07-25T08:48:25.939Z,59.40
2022-07-25T08:50:54.456Z,60.10
2022-07-25T08:53:37.900Z,60.50
2022-07-25T08:56:12.656Z,59.80
2022-07-25T08:58:43.834Z,58.00
2022-07-25T09:01:13.892Z,59.30
2022-07-25T09:03:42.885Z,57.10
2022-07-25T09:06:16.778Z,56.30
2022-07-25T09:08:58.262Z,58.60
2022-07-25T09:11:38.086Z,55.50
2022-07-25T09:14:10.737Z,56.20
2022-07-25T09:16:41.030Z,57.00
2022-07-25T09:19:20.285Z,56.00
2022-07-25T09:22:07.545Z,55.90
2022-07-25T09:24:44.473Z,55.10
2022-07-25T09:27:12.761Z,57.20
2022-07-25T09:29:42.507Z,55.40
2022-07-25T09:32:19.177Z,55.80
2022-07-25T09:34:48.433Z,55.50
2022-07-25T09:37:18.334Z,53.70
2022-07-25T09:39:51.925Z,53.70
2022-07-25T09:42:20.876Z,52.70
2022-07-25T09:45:00.820Z,52.60
2022-07-25T09:47:27.887Z,52.70
2022-07-25T09:49:55.227Z,54.70
2022-07-25T09:52:22.121Z,53.50
2022-07-25T09:54:49.923Z,51.90
2022-07-25T09:57:17.162Z,51.90
2022-07-25T09:59:44.809Z,50.60
2022-07-25T10:02:49.997Z,51.60
2022-07-25T10:05:26.690Z,51.80
2022-07-25T10:07:55.330Z,49.50
2022-07-25T10:10:29.734Z,49.00
2022-07-25T10:13:10.301Z,49.60
2022-07-25T10:15:51.433Z,51.00
2022-07-25T10:18:21.952Z,50.20
2022-07-25T10:20:50.966Z,50.50
2022-07-25T10:23:21.717Z,49.60
2022-07-25T10:26:00.922Z,50.30
2022-07-25T10:28:49.349Z,49.70
2022-07-25T10:31:34.318Z,45.10
2022-07-25T10:34:04.038Z,46.30
2022-07-25T10:36:51.677Z,45.60
2022-07-25T10:39:21.303Z,49.00
2022-07-25T10:42:02.337Z,48.40
2022-07-25T10:44:41.347Z,48.00
2022-07-25T10:47:13.026Z,44.30
2022-07-25T10:49:55.118Z,45.90
2022-07-25T10:52:30.270Z,44.20
2022-07-25T10:55:01.485Z,45.10
2022-07-25T10:57:32.006Z,44.70
2022-07-25T11:00:09.090Z,44.20
2022-07-25T11:02:36.332Z,44.80
2022-07-25T11:05:04.697Z,43.50
2022-07-25T11:07:37.569Z,43.30
2022-07-25T11:10:05.808Z,43.30
2022-07-25T11:12:33.387Z,44.60
2022-07-25T11:15:07.587Z,44.70
2022-07-25T11:17:34.765Z,44.70
2022-07-25T11:20:03.010Z,43.30
2022-07-25T11:22:31.581Z,41.80
2022-07-25T11:24:59.058Z,40.20
2022-07-25T11:27:30.714Z,43.00
2022-07-25T11:30:14.937Z,42.10
2022-07-25T11:32:43.731Z,43.00
2022-07-25T11:35:13.009Z,39.70
2022-07-25T11:37:41.605Z,42.90
2022-07-25T11:40:09.449Z,43.40
2022-07-25T11:42:41.887Z,42.40
2022-07-25T11:45:29.907Z,40.20
2022-07-25T11:48:09.642Z,40.50
2022-07-25T11:50:39.634Z,41.50
2022-07-25T11:53:14.000Z,41.40
2022-07-25T11:55:42.807Z,40.80
2022-07-25T11:58:12.697Z,41.30
2022-07-25T12:00:41.905Z,43.40
2022-07-25T12:03:14.293Z,42.60
2022-07-25T12:05:46.166Z,42.70
2022-07-25T12:08:15.409Z,41.60
2022-07-25T12:10:47.567Z,42.80
2022-07-25T12:13:23.248Z,43.10
2022-07-25T12:15:51.280Z,42.00
2022-07-25T12:18:18.075Z,44.30
2022-07-25T12:20:45.396Z,43.90
2022-07-25T12:23:13.931Z,43.80
2022-07-25T12:25:44.126Z,41.30
2022-07-25T12:28:12.135Z,42.50
2022-07-25T12:30:40.321Z,41.80
2022-07-25T12:33:07.695Z,43.30
2022-07-25T12:35:34.641Z,41.50
2022-07-25T12:38:01.499Z,42.50
2022-07-25T12:40:28.467Z,42.40
2022-07-25T12:42:55.616Z,43.80
2022-07-25T12:45:23.283Z,43.20
2022-07-25T12:47:50.171Z,45.50
2022-07-25T12:50:18.584Z,45.20
2022-07-25T12:52:47.454Z,43.90
2022-07-25T12:55:17.518Z,43.50
2022-07-25T12:57:44.768Z,43.80
2022-07-25T13:00:14.603Z,43.80
2022-07-25T13:02:41.791Z,42.70
2022-07-25T13:05:09.054Z,42.70
2022-07-25T13:07:36.046Z,44.10
2022-07-25T13:10:04.044Z,43.80
2022-07-25T13:12:30.892Z,43.90
2022-07-25T13:14:57.840Z,42.20
2022-07-25T13:17:27.472Z,43.70
2022-07-25T13:19:55.252Z,43.50
2022-07-25T13:22:22.469Z,44.30
2022-07-25T13:24:50.285Z,43.60
2022-07-25T13:27:22.324Z,41.90
2022-07-25T13:30:14.706Z,41.80
2022-07-25T13:32:42.405Z,42.80
2022-07-25T13:35:10.900Z,43.90
2022-07-25T13:37:37.691Z,45.00
2022-07-25T13:40:05.091Z,44.90
2022-07-25T13:42:31.981Z,45.30
2022-07-25T13:44:58.890Z,44.90
2022-07-25T13:47:30.301Z,45.90
2022-07-25T13:50:03.476Z,45.20
2022-07-25T13:52:30.572Z,44.70
2022-07-25T13:54:57.553Z,46.20
2022-07-25T13:57:24.378Z,46.40
2022-07-25T13:59:51.246Z,45.60
2022-07-25T14:02:18.135Z,45.80
2022-07-25T14:04:46.416Z,47.70
2022-07-25T14:07:14.113Z,48.20
2022-07-25T14:09:40.903Z,48.80
2022-07-25T14:12:08.213Z,49.10
2022-07-25T14:14:35.140Z,49.30
2022-07-25T14:17:02.841Z,50.00
2022-07-25T14:19:29.878Z,51.20
2022-07-25T14:21:56.677Z,50.60
2022-07-25T14:24:23.531Z,50.90
2022-07-25T14:26:50.472Z,51.70
2022-07-25T14:29:17.387Z,51.30
2022-07-25T14:31:44.669Z,50.50
2022-07-25T14:34:11.639Z,50.60
2022-07-25T14:36:38.461Z,50.60
2022-07-25T14:39:05.720Z,50.50
2022-07-25T14:41:33.272Z,50.50
2022-07-25T14:44:00.138Z,51.10
2022-07-25T14:46:27.115Z,50.30
2022-07-25T14:48:54.161Z,51.20
2022-07-25T14:51:21.191Z,50.60
2022-07-25T14:53:53.020Z,51.50
2022-07-25T14:56:20.399Z,51.60
2022-07-25T14:58:47.215Z,51.70
2022-07-25T15:01:16.311Z,50.80
2022-07-25T15:03:43.122Z,50.70
2022-07-25T15:06:10.668Z,51.20
2022-07-25T15:08:38.915Z,51.20
2022-07-25T15:11:06.008Z,52.20
2022-07-25T15:13:33.015Z,52.20
2022-07-25T15:16:00.606Z,52.20
2022-07-25T15:18:27.774Z,52.70
2022-07-25T15:20:55.587Z,54.20
2022-07-25T15:23:24.763Z,54.30
2022-07-25T15:26:08.092Z,55.00
2022-07-25T15:28:36.882Z,54.90
2022-07-25T15:31:04.630Z,56.00
2022-07-25T15:33:31.544Z,58.90
2022-07-25T15:35:58.823Z,65.00
2022-07-25T15:38:28.793Z,73.40
2022-07-25T15:40:55.637Z,78.60
2022-07-25T15:43:28.545Z,80.20
2022-07-25T15:45:56.434Z,85.40
2022-07-25T15:48:23.937Z,87.00
2022-07-25T15:50:54.755Z,87.80
2022-07-25T15:53:21.877Z,91.30
2022-07-25T15:55:48.818Z,92.20
2022-07-25T15:58:15.561Z,93.40
2022-07-25T16:00:43.599Z,93.80
2022-07-25T16:03:11.307Z,94.30
2022-07-25T16:05:39.446Z,94.90
2022-07-25T16:08:08.327Z,96.20
2022-07-25T16:10:35.611Z,97.20
2022-07-25T16:13:02.621Z,97.80
2022-07-25T16:15:29.591Z,96.80
2022-07-25T16:18:01.716Z,96.50
2022-07-25T16:20:29.660Z,98.80
2022-07-25T16:22:57.825Z,99.90
2022-07-25T16:25:25.930Z,99.90
2022-07-25T16:27:52.971Z,99.90
2022-07-25T16:30:20.750Z,99.90
2022-07-25T16:32:47.633Z,99.90
2022-07-25T16:35:14.582Z,99.90
2022-07-25T16:37:42.286Z,99.90
2022-07-25T16:40:10.453Z,99.90
2022-07-25T16:42:39.677Z,99.90
2022-07-25T16:45:10.168Z,99.90
2022-07-25T16:47:37.570Z,99.90
2022-07-25T16:50:13.598Z,99.90
2022-07-25T16:52:40.409Z,99.90
2022-07-25T16:55:17.535Z,99.90
2022-07-25T16:58:08.207Z,99.90
2022-07-25T17:00:35.545Z,99.90
2022-07-25T17:03:07.383Z,99.90
2022-07-25T17:06:05.318Z,99.90
2022-07-25T17:08:52.796Z,99.90
2022-07-25T17:11:19.826Z,99.90
2022-07-25T17:13:46.894Z,99.90
2022-07-25T17:16:13.802Z,99.90
2022-07-25T17:18:41.604Z,99.90
2022-07-25T17:21:09.654Z,99.90
2022-07-25T17:23:37.479Z,99.90
2022-07-25T17:26:05.507Z,99.90
2022-07-25T17:28:32.440Z,99.90
2022-07-25T17:30:59.474Z,99.90
2022-07-25T17:33:26.665Z,99.90
2022-07-25T17:35:53.613Z,99.90
2022-07-25T17:38:25.848Z,99.90
2022-07-25T17:40:53.879Z,99.90
2022-07-25T17:43:20.651Z,99.90
2022-07-25T17:45:47.926Z,99.90
2022-07-25T17:48:15.715Z,99.90
2022-07-25T17:50:42.678Z,99.90
2022-07-25T17:53:09.755Z,99.90
2022-07-25T17:55:38.959Z,99.90
2022-07-25T17:58:06.289Z,99.90
2022-07-25T18:00:33.057Z,99.90
2022-07-25T18:03:00.021Z,99.90
2022-07-25T18:05:27.622Z,99.90
2022-07-25T18:07:54.659Z,99.90
2022-07-25T18:10:22.053Z,99.90
2022-07-25T18:12:50.100Z,99.90
2022-07-25T18:15:17.039Z,99.90
2022-07-25T18:17:45.361Z,99.90
2022-07-25T18:20:13.931Z,99.90
2022-07-25T18:22:41.420Z,99.90
2022-07-25T18:25:11.239Z,99.90
2022-07-25T18:27:42.923Z,99.90
2022-07-25T18:30:10.761Z,99.90
2022-07-25T18:32:39.260Z,99.90
2022-07-25T18:35:07.888Z,99.90
2022-07-25T18:37:35.423Z,99.90
2022-07-25T18:40:02.406Z,99.90
2022-07-25T18:42:30.109Z,99.90
2022-07-25T18:44:58.107Z,99.90
2022-07-25T18:47:28.430Z,99.90
2022-07-25T18:49:59.452Z,99.90
2022-07-25T18:52:26.634Z,99.90
2022-07-25T18:54:58.759Z,99.90
2022-07-25T18:57:25.604Z,99.90
2022-07-25T18:59:52.481Z,99.90
2022-07-25T19:02:19.305Z,99.90
2022-07-25T19:04:46.102Z,99.90
2022-07-25T19:07:13.176Z,99.90
2022-07-25T19:09:40.071Z,99.90
2022-07-25T19:12:07.419Z,99.90
2022-07-25T19:14:34.510Z,99.90
2022-07-25T19:17:04.128Z,99.90
2022-07-25T19:19:31.565Z,99.90
2022-07-25T19:21:58.415Z,99.90
2022-07-25T19:24:25.332Z,99.90
2022-07-25T19:26:52.478Z,99.90
2022-07-25T19:29:20.939Z,99.90
2022-07-25T19:31:48.145Z,99.90
2022-07-25T19:34:15.113Z,99.90
2022-07-25T19:36:45.758Z,99.90
2022-07-25T19:39:13.091Z,99.90
2022-07-25T19:41:44.684Z,99.90
2022-07-25T19:44:13.419Z,99.90
2022-07-25T19:46:40.346Z,99.90
2022-07-25T19:49:07.823Z,99.90
2022-07-25T19:51:35.083Z,99.90
2022-07-25T19:54:08.242Z,99.90
2022-07-25T19:56:35.346Z,99.90
2022-07-25T19:59:02.428Z,99.90
2022-07-25T20:01:29.495Z,99.90
2022-07-25T20:03:56.432Z,99.90
2022-07-25T20:06:24.767Z,99.90
2022-07-25T20:08:51.545Z,99.90
2022-07-25T20:11:18.524Z,99.90
2022-07-25T20:13:45.619Z,99.90
2022-07-25T20:16:12.399Z,99.90
2022-07-25T20:18:39.274Z,99.90
2022-07-25T20:21:07.325Z,99.90
2022-07-25T20:23:34.193Z,99.90
2022-07-25T20:26:02.302Z,99.90
2022-07-25T20:28:29.131Z,99.90
2022-07-25T20:30:57.233Z,99.90
2022-07-25T20:33:27.065Z,99.90
2022-07-25T20:35:57.799Z,99.90
2022-07-25T20:38:28.175Z,99.90
2022-07-25T20:40:55.703Z,99.90
2022-07-25T20:43:23.500Z,99.90
2022-07-25T20:45:50.536Z,99.90
2022-07-25T20:48:17.920Z,99.90
2022-07-25T20:50:44.897Z,99.90
2022-07-25T20:53:12.317Z,99.90
2022-07-25T20:55:39.417Z,99.90
2022-07-25T20:58:06.185Z,99.90
2022-07-25T21:00:33.307Z,99.90
2022-07-25T21:03:00.914Z,99.90
2022-07-25T21:05:28.573Z,99.90
2022-07-25T21:07:55.453Z,99.90
2022-07-25T21:10:22.719Z,99.90
2022-07-25T21:12:49.804Z,99.90
2022-07-25T21:15:16.988Z,99.90
2022-07-25T21:17:43.855Z,99.90
2022-07-25T21:20:14.161Z,99.90
2022-07-25T21:22:43.092Z,99.90
2022-07-25T21:25:10.776Z,99.90
2022-07-25T21:27:38.931Z,99.90
2022-07-25T21:30:07.775Z,99.90
2022-07-25T21:32:34.760Z,99.90
2022-07-25T21:35:01.785Z,99.90
2022-07-25T21:37:28.623Z,99.90
2022-07-25T21:39:55.426Z,99.90
2022-07-25T21:42:22.218Z,99.90
2022-07-25T21:44:49.362Z,99.90
2022-07-25T21:47:16.192Z,99.90
2022-07-25T21:50:02.057Z,99.90
2022-07-25T21:52:35.016Z,99.90
2022-07-25T21:55:03.451Z,99.90
2022-07-25T21:57:30.657Z,99.90
2022-07-25T21:59:57.612Z,99.90
2022-07-25T22:02:24.785Z,99.90
2022-07-25T22:04:51.596Z,99.90
2022-07-25T22:07:18.693Z,99.90
2022-07-25T22:09:45.576Z,99.90
2022-07-25T22:12:12.392Z,99.90
2022-07-25T22:14:39.253Z,99.90
2022-07-25T22:17:06.265Z,99.90
2022-07-25T22:19:33.605Z,99.90
2022-07-25T22:22:00.874Z,99.90
2022-07-25T22:24:28.634Z,99.90
2022-07-25T22:26:55.445Z,99.90
2022-07-25T22:29:22.358Z,99.90
2022-07-25T22:31:49.376Z,99.90
2022-07-25T22:34:16.524Z,99.90
2022-07-25T22:36:43.445Z,99.90
2022-07-25T22:39:11.118Z,99.90
2022-07-25T22:41:38.772Z,99.90
2022-07-25T22:44:06.716Z,99.90
2022-07-25T22:46:34.482Z,99.90
2022-07-25T22:49:02.132Z,99.90
2022-07-25T22:51:30.024Z,99.90
2022-07-25T22:53:57.965Z,99.90
2022-07-25T22:56:25.375Z,99.90
2022-07-25T22:58:52.409Z,99.90
2022-07-25T23:01:20.079Z,99.90
2022-07-25T23:03:49.940Z,99.90
2022-07-25T23:06:19.096Z,99.90
2022-07-25T23:08:46.890Z,99.90
2022-07-25T23:11:13.881Z,99.90
2022-07-25T23:13:41.661Z,99.90
2022-07-25T23:16:10.375Z,99.90
2022-07-25T23:18:38.699Z,99.90
2022-07-25T23:21:05.908Z,99.90
2022-07-25T23:23:32.715Z,99.90
2022-07-25T23:25:59.490Z,99.90
2022-07-25T23:28:26.291Z,99.90
2022-07-25T23:30:53.266Z,99.90
2022-07-25T23:33:24.470Z,99.90
2022-07-25T23:35:52.812Z,99.90
2022-07-25T23:38:19.643Z,99.90
2022-07-25T23:40:47.511Z,99.90
2022-07-25T23:43:15.111Z,99.90
2022-07-25T23:45:47.381Z,99.90
2022-07-25T23:48:15.058Z,99.90
2022-07-25T23:50:41.897Z,99.90
2022-07-25T23:53:08.727Z,99.90
2022-07-25T23:55:35.496Z,99.90
2022-07-25T23:58:02.513Z,99.90
